createdAt,value
2022-11-27T00:00:12.626Z,1.77
2022-11-27T00:02:40.894Z,0.90
2022-11-27T00:05:08.947Z,1.98
2022-11-27T00:07:36.749Z,1.55
2022-11-27T00:10:04.757Z,2.07
2022-11-27T00:12:32.625Z,1.52
2022-11-27T00:15:00.303Z,2.28
2022-11-27T00:17:28.033Z,2.15
2022-11-27T00:19:55.715Z,1.30
2022-11-27T00:22:23.528Z,1.00
2022-11-27T00:24:51.204Z,1.60
2022-11-27T00:27:18.963Z,1.27
2022-11-27T00:29:46.724Z,1.60
2022-11-27T00:32:14.484Z,1.77
2022-11-27T00:34:42.491Z,1.30
2022-11-27T00:37:10.365Z,1.58
2022-11-27T00:39:38.200Z,1.63
2022-11-27T00:42:05.931Z,1.67
2022-11-27T00:44:34.550Z,1.23
2022-11-27T00:47:02.328Z,2.15
2022-11-27T00:49:31.204Z,3.08
2022-11-27T00:51:59.080Z,1.83
2022-11-27T00:54:26.735Z,1.98
2022-11-27T00:56:54.443Z,2.88
2022-11-27T00:59:22.114Z,1.23
2022-11-27T01:01:49.909Z,1.85
2022-11-27T01:04:17.651Z,2.65
2022-11-27T01:06:45.514Z,2.17
2022-11-27T01:09:15.572Z,1.60
2022-11-27T01:11:43.327Z,1.58
2022-11-27T01:14:17.317Z,1.65
2022-11-27T01:16:45.299Z,1.80
2022-11-27T01:19:13.597Z,1.48
2022-11-27T01:21:41.391Z,1.75
2022-11-27T01:24:09.391Z,1.40
2022-11-27T01:26:37.190Z,1.88
2022-11-27T01:29:04.986Z,1.35
2022-11-27T01:31:33.377Z,1.40
2022-11-27T01:34:04.959Z,2.07
2022-11-27T01:36:32.874Z,1.27
2022-11-27T01:39:00.660Z,1.75
2022-11-27T01:41:29.808Z,1.77
2022-11-27T01:43:58.521Z,1.67
2022-11-27T01:46:28.586Z,1.48
2022-11-27T01:49:22.857Z,1.87
2022-11-27T01:52:09.352Z,1.27
2022-11-27T01:54:50.676Z,2.05
2022-11-27T01:57:31.913Z,1.98
2022-11-27T02:00:00.232Z,1.90
2022-11-27T02:02:28.031Z,1.80
2022-11-27T02:04:55.896Z,1.70
2022-11-27T02:07:23.677Z,1.80
2022-11-27T02:09:51.432Z,1.42
2022-11-27T02:12:25.434Z,1.55
2022-11-27T02:15:08.568Z,1.00
2022-11-27T02:17:42.241Z,1.50
2022-11-27T02:20:12.091Z,1.55
2022-11-27T02:22:42.840Z,1.60
2022-11-27T02:25:31.548Z,1.20
2022-11-27T02:28:17.865Z,1.13
2022-11-27T02:30:47.711Z,1.13
2022-11-27T02:33:15.452Z,1.53
2022-11-27T02:35:51.061Z,1.17
2022-11-27T02:38:26.655Z,1.58
2022-11-27T02:40:54.410Z,1.27
2022-11-27T02:43:23.540Z,1.13
2022-11-27T02:45:52.020Z,1.92
2022-11-27T02:48:20.892Z,1.42
2022-11-27T02:50:48.569Z,1.80
2022-11-27T02:53:18.319Z,1.13
2022-11-27T02:55:46.008Z,2.00
2022-11-27T02:58:14.514Z,1.47
2022-11-27T03:00:42.482Z,1.67
2022-11-27T03:03:10.541Z,1.83
2022-11-27T03:05:39.473Z,1.60
2022-11-27T03:08:09.496Z,2.17
2022-11-27T03:10:38.222Z,1.92
2022-11-27T03:13:05.904Z,1.98
2022-11-27T03:15:38.639Z,1.57
2022-11-27T03:18:08.713Z,1.58
2022-11-27T03:20:38.304Z,1.60
2022-11-27T03:23:05.993Z,1.37
2022-11-27T03:25:33.785Z,1.88
2022-11-27T03:28:06.869Z,2.15
2022-11-27T03:30:34.594Z,1.57
2022-11-27T03:33:02.348Z,1.55
2022-11-27T03:35:31.492Z,1.80
2022-11-27T03:37:59.180Z,1.30
2022-11-27T03:40:40.294Z,1.43
2022-11-27T03:43:10.858Z,2.03
2022-11-27T03:45:58.180Z,1.60
2022-11-27T03:48:29.735Z,2.33
2022-11-27T03:51:00.535Z,1.55
2022-11-27T03:53:34.515Z,1.00
2022-11-27T03:56:09.651Z,1.80
2022-11-27T03:58:39.483Z,1.65
2022-11-27T04:01:08.401Z,1.00
2022-11-27T04:03:36.785Z,1.08
2022-11-27T04:06:04.702Z,2.10
2022-11-27T04:08:32.379Z,1.40
2022-11-27T04:11:00.175Z,1.60
2022-11-27T04:13:27.960Z,1.87
2022-11-27T04:15:55.744Z,1.52
2022-11-27T04:18:23.482Z,1.42
2022-11-27T04:20:51.264Z,1.17
2022-11-27T04:23:18.947Z,1.80
2022-11-27T04:25:46.723Z,0.75
2022-11-27T04:28:14.432Z,1.88
2022-11-27T04:30:42.236Z,1.33
2022-11-27T04:33:10.043Z,1.30
2022-11-27T04:35:37.723Z,2.10
2022-11-27T04:38:06.127Z,2.20
2022-11-27T04:40:33.800Z,1.83
2022-11-27T04:43:01.553Z,2.53
2022-11-27T04:45:29.488Z,1.63
2022-11-27T04:47:57.277Z,1.77
2022-11-27T04:50:25.031Z,1.60
2022-11-27T04:52:52.776Z,1.30
2022-11-27T04:55:20.459Z,1.17
2022-11-27T04:57:48.237Z,1.38
2022-11-27T05:00:16.200Z,1.10
2022-11-27T05:02:44.034Z,1.90
2022-11-27T05:05:11.869Z,1.30
2022-11-27T05:07:39.592Z,1.33
2022-11-27T05:10:07.733Z,0.77
2022-11-27T05:12:35.392Z,1.00
2022-11-27T05:15:04.581Z,2.58
2022-11-27T05:17:32.629Z,1.15
2022-11-27T05:20:00.506Z,1.20
2022-11-27T05:22:28.338Z,1.77
2022-11-27T05:24:55.996Z,1.55
2022-11-27T05:27:23.776Z,1.60
2022-11-27T05:29:51.414Z,1.52
2022-11-27T05:32:19.167Z,1.27
2022-11-27T05:34:48.747Z,1.70
2022-11-27T05:37:19.630Z,1.88
2022-11-27T05:39:47.583Z,1.50
2022-11-27T05:42:15.370Z,1.02
2022-11-27T05:44:43.213Z,1.33
2022-11-27T05:47:11.125Z,1.10
2022-11-27T05:49:39.423Z,1.23
2022-11-27T05:52:07.115Z,1.90
2022-11-27T05:54:34.846Z,1.70
2022-11-27T05:57:02.544Z,1.10
2022-11-27T05:59:30.395Z,1.17
2022-11-27T06:01:58.426Z,1.58
2022-11-27T06:04:26.125Z,1.30
2022-11-27T06:06:53.867Z,1.50
2022-11-27T06:09:21.546Z,1.67
2022-11-27T06:11:49.403Z,0.82
2022-11-27T06:14:17.128Z,1.38
2022-11-27T06:16:44.859Z,0.87
2022-11-27T06:19:12.833Z,1.10
2022-11-27T06:21:40.516Z,1.05
2022-11-27T06:24:08.299Z,1.53
2022-11-27T06:26:36.031Z,1.30
2022-11-27T06:29:03.928Z,2.22
2022-11-27T06:31:32.090Z,0.93
2022-11-27T06:34:00.070Z,1.57
2022-11-27T06:36:31.556Z,1.33
2022-11-27T06:38:59.331Z,0.77
2022-11-27T06:41:27.441Z,1.43
2022-11-27T06:43:58.809Z,1.20
2022-11-27T06:46:26.573Z,1.08
2022-11-27T06:48:54.521Z,1.30
2022-11-27T06:51:23.162Z,1.17
2022-11-27T06:53:51.062Z,1.23
2022-11-27T06:56:19.483Z,1.33
2022-11-27T06:58:47.324Z,1.40
2022-11-27T07:01:15.699Z,1.05
2022-11-27T07:03:43.560Z,1.27
2022-11-27T07:06:11.963Z,1.27
2022-11-27T07:08:39.671Z,0.70
2022-11-27T07:11:14.062Z,0.82
2022-11-27T07:13:41.840Z,0.70
2022-11-27T07:16:10.428Z,0.68
2022-11-27T07:18:38.938Z,0.93
2022-11-27T07:21:06.801Z,1.20
2022-11-27T07:23:34.536Z,1.07
2022-11-27T07:26:18.221Z,1.52
2022-11-27T07:28:46.037Z,0.90
2022-11-27T07:31:14.090Z,0.87
2022-11-27T07:33:41.841Z,0.80
2022-11-27T07:36:11.946Z,1.13
2022-11-27T07:38:39.647Z,0.97
2022-11-27T07:41:07.728Z,0.70
2022-11-27T07:43:35.568Z,0.98
2022-11-27T07:46:30.582Z,1.52
2022-11-27T07:49:00.666Z,0.90
2022-11-27T07:51:28.686Z,0.75
2022-11-27T07:54:00.336Z,1.58
2022-11-27T07:56:28.046Z,1.30
2022-11-27T07:58:55.757Z,1.00
2022-11-27T08:01:23.624Z,0.73
2022-11-27T08:03:51.723Z,1.67
2022-11-27T08:06:22.977Z,1.00
2022-11-27T08:08:50.884Z,2.17
2022-11-27T08:11:19.515Z,1.00
2022-11-27T08:13:47.179Z,0.80
2022-11-27T08:16:15.095Z,1.10
2022-11-27T08:18:42.923Z,1.33
2022-11-27T08:21:10.789Z,0.40
2022-11-27T08:23:38.484Z,1.25
2022-11-27T08:26:06.994Z,0.90
2022-11-27T08:28:34.761Z,1.00
2022-11-27T08:31:05.942Z,1.02
2022-11-27T08:33:33.673Z,1.20
2022-11-27T08:36:01.448Z,1.13
2022-11-27T08:38:31.578Z,0.87
2022-11-27T08:40:59.807Z,1.00
2022-11-27T08:43:27.635Z,1.00
2022-11-27T08:45:55.558Z,1.43
2022-11-27T08:48:23.483Z,1.25
2022-11-27T08:50:51.261Z,1.13
2022-11-27T08:53:19.106Z,1.20
2022-11-27T08:55:46.880Z,1.00
2022-11-27T08:58:14.680Z,1.50
2022-11-27T09:00:42.584Z,1.35
2022-11-27T09:03:11.774Z,1.30
2022-11-27T09:05:42.317Z,2.58
2022-11-27T09:08:10.025Z,1.50
2022-11-27T09:10:37.866Z,0.93
2022-11-27T09:13:06.775Z,1.42
2022-11-27T09:15:34.521Z,1.05
2022-11-27T09:18:02.252Z,1.30
2022-11-27T09:20:29.962Z,1.05
2022-11-27T09:22:57.724Z,1.02
2022-11-27T09:25:25.432Z,1.15
2022-11-27T09:27:53.169Z,1.03
2022-11-27T09:30:20.990Z,0.95
2022-11-27T09:32:48.748Z,1.45
2022-11-27T09:35:16.611Z,2.30
2022-11-27T09:37:44.333Z,1.70
2022-11-27T09:40:15.300Z,1.17
2022-11-27T09:42:56.641Z,1.20
2022-11-27T09:45:24.353Z,1.50
2022-11-27T09:47:54.236Z,1.98
2022-11-27T09:50:32.418Z,1.17
2022-11-27T09:53:12.155Z,1.33
2022-11-27T09:55:42.105Z,0.88
2022-11-27T09:58:19.950Z,1.48
2022-11-27T10:00:48.092Z,1.80
2022-11-27T10:03:16.307Z,1.27
2022-11-27T10:05:47.483Z,1.27
2022-11-27T10:08:33.471Z,1.87
2022-11-27T10:11:03.881Z,2.35
2022-11-27T10:13:31.575Z,1.50
2022-11-27T10:16:02.414Z,1.45
2022-11-27T10:18:30.088Z,1.70
2022-11-27T10:20:59.462Z,1.55
2022-11-27T10:23:45.359Z,1.48
2022-11-27T10:26:15.791Z,1.67
2022-11-27T10:29:01.450Z,1.80
2022-11-27T10:31:40.077Z,2.78
2022-11-27T10:34:26.348Z,2.23
2022-11-27T10:36:54.027Z,2.15
2022-11-27T10:39:33.789Z,2.22
2022-11-27T10:42:04.422Z,1.80
2022-11-27T10:44:43.161Z,1.53
2022-11-27T10:47:14.006Z,1.40
2022-11-27T10:49:42.312Z,1.33
2022-11-27T10:52:17.142Z,1.90
2022-11-27T10:54:45.098Z,1.98
2022-11-27T10:57:19.457Z,1.67
2022-11-27T11:00:06.121Z,1.77
2022-11-27T11:02:34.494Z,1.92
2022-11-27T11:05:32.855Z,1.77
2022-11-27T11:08:01.008Z,2.15
2022-11-27T11:10:33.988Z,2.27
2022-11-27T11:13:20.774Z,1.77
2022-11-27T11:15:52.788Z,1.95
2022-11-27T11:18:21.171Z,1.03
2022-11-27T11:20:49.831Z,2.42
2022-11-27T11:23:29.125Z,2.25
2022-11-27T11:25:58.274Z,2.23
2022-11-27T11:28:26.044Z,2.40
2022-11-27T11:30:57.727Z,1.83
2022-11-27T11:33:25.883Z,2.42
2022-11-27T11:35:54.586Z,1.90
2022-11-27T11:38:26.253Z,1.52
2022-11-27T11:41:07.111Z,1.80
2022-11-27T11:43:35.879Z,2.67
2022-11-27T11:46:08.712Z,1.73
2022-11-27T11:48:36.634Z,1.67
2022-11-27T11:51:15.567Z,1.60
2022-11-27T11:53:45.643Z,2.00
2022-11-27T11:56:32.107Z,2.03
2022-11-27T11:59:03.381Z,1.40
2022-11-27T12:01:44.196Z,2.10
2022-11-27T12:04:18.226Z,1.50
2022-11-27T12:07:03.540Z,1.80
2022-11-27T12:09:49.561Z,1.80
2022-11-27T12:12:52.620Z,1.75
2022-11-27T12:15:26.037Z,1.92
2022-11-27T12:18:09.006Z,1.53
2022-11-27T12:20:42.664Z,1.20
2022-11-27T12:23:17.544Z,1.67
2022-11-27T12:25:51.429Z,2.40
2022-11-27T12:28:29.623Z,1.20
2022-11-27T12:31:06.721Z,2.75
2022-11-27T12:33:34.385Z,2.78
2022-11-27T12:36:10.985Z,2.03
2022-11-27T12:38:50.636Z,1.85
2022-11-27T12:41:24.145Z,2.08
2022-11-27T12:44:00.582Z,1.80
2022-11-27T12:46:28.384Z,1.63
2022-11-27T12:49:22.279Z,2.30
2022-11-27T12:51:56.537Z,1.90
2022-11-27T12:54:30.491Z,1.40
2022-11-27T12:56:59.293Z,1.73
2022-11-27T12:59:27.370Z,1.80
2022-11-27T13:01:57.197Z,1.97
2022-11-27T13:04:44.856Z,2.00
2022-11-27T13:07:21.910Z,2.28
2022-11-27T13:10:15.973Z,1.83
2022-11-27T13:13:12.894Z,1.00
2022-11-27T13:15:49.498Z,1.83
2022-11-27T13:18:20.067Z,1.45
2022-11-27T13:20:52.181Z,2.13
2022-11-27T13:23:21.218Z,1.63
2022-11-27T13:25:52.754Z,1.45
2022-11-27T13:28:40.825Z,1.77
2022-11-27T13:31:08.697Z,1.58
2022-11-27T13:33:40.275Z,2.20
2022-11-27T13:36:09.132Z,1.97
2022-11-27T13:38:38.392Z,2.17
2022-11-27T13:41:07.190Z,1.83
2022-11-27T13:43:41.148Z,1.05
2022-11-27T13:46:15.038Z,1.83
2022-11-27T13:48:43.599Z,1.73
2022-11-27T13:51:12.036Z,1.75
2022-11-27T13:53:40.827Z,1.80
2022-11-27T13:56:08.875Z,1.80
2022-11-27T13:58:40.867Z,1.30
2022-11-27T14:01:14.727Z,1.67
2022-11-27T14:03:42.501Z,1.00
2022-11-27T14:06:29.285Z,1.50
2022-11-27T14:08:58.098Z,1.60
2022-11-27T14:11:29.511Z,1.90
2022-11-27T14:13:57.261Z,1.45
2022-11-27T14:16:26.515Z,1.17
2022-11-27T14:18:55.009Z,2.20
2022-11-27T14:21:39.464Z,1.42
2022-11-27T14:24:27.515Z,2.17
2022-11-27T14:26:55.289Z,1.70
2022-11-27T14:29:23.507Z,1.67
2022-11-27T14:32:17.562Z,2.28
2022-11-27T14:34:45.412Z,2.22
2022-11-27T14:37:31.297Z,2.43
2022-11-27T14:39:59.021Z,2.40
2022-11-27T14:42:29.305Z,1.23
2022-11-27T14:45:03.953Z,1.70
2022-11-27T14:47:34.081Z,1.85
2022-11-27T14:50:04.939Z,1.50
2022-11-27T14:52:32.807Z,2.03
2022-11-27T14:55:00.619Z,1.48
2022-11-27T14:57:28.793Z,2.08
2022-11-27T15:00:15.384Z,2.30
2022-11-27T15:02:43.539Z,1.97
2022-11-27T15:05:24.559Z,2.03
2022-11-27T15:07:53.344Z,1.90
2022-11-27T15:10:25.431Z,1.50
2022-11-27T15:12:53.149Z,1.98
2022-11-27T15:15:21.658Z,2.13
2022-11-27T15:17:50.271Z,1.40
2022-11-27T15:20:22.023Z,1.45
2022-11-27T15:22:50.821Z,2.17
2022-11-27T15:25:38.778Z,1.50
2022-11-27T15:28:25.482Z,2.17
2022-11-27T15:30:53.236Z,1.45
2022-11-27T15:33:38.949Z,1.67
2022-11-27T15:36:32.829Z,1.60
2022-11-27T15:39:16.038Z,1.52
2022-11-27T15:41:56.623Z,1.85
2022-11-27T15:44:25.158Z,2.73
2022-11-27T15:46:52.969Z,2.42
2022-11-27T15:49:20.708Z,2.58
2022-11-27T15:51:48.412Z,2.67
2022-11-27T15:54:16.140Z,2.53
2022-11-27T15:56:43.811Z,2.90
2022-11-27T15:59:11.617Z,2.78
2022-11-27T16:01:39.538Z,3.20
2022-11-27T16:04:07.504Z,2.72
2022-11-27T16:06:38.541Z,2.63
2022-11-27T16:09:06.366Z,3.10
2022-11-27T16:11:34.189Z,3.10
2022-11-27T16:14:01.914Z,3.47
2022-11-27T16:16:30.074Z,2.30
2022-11-27T16:18:59.810Z,3.10
2022-11-27T16:21:29.825Z,2.75
2022-11-27T16:24:01.392Z,2.78
2022-11-27T16:26:29.645Z,2.37
2022-11-27T16:28:57.382Z,2.60
2022-11-27T16:31:25.278Z,3.35
2022-11-27T16:33:53.159Z,2.70
2022-11-27T16:36:21.264Z,3.08
2022-11-27T16:38:49.134Z,3.20
2022-11-27T16:41:17.760Z,2.13
2022-11-27T16:43:46.527Z,3.63
2022-11-27T16:46:21.150Z,3.00
2022-11-27T16:48:49.092Z,2.83
2022-11-27T16:51:21.729Z,2.77
2022-11-27T16:53:50.527Z,2.17
2022-11-27T16:56:18.846Z,3.53
2022-11-27T16:58:47.263Z,2.17
2022-11-27T17:01:16.184Z,2.20
2022-11-27T17:03:44.079Z,3.15
2022-11-27T17:06:13.035Z,2.50
2022-11-27T17:08:41.806Z,2.60
2022-11-27T17:11:17.501Z,2.47
2022-11-27T17:13:45.735Z,2.58
2022-11-27T17:16:13.563Z,2.70
2022-11-27T17:18:41.588Z,2.08
2022-11-27T17:21:13.388Z,3.35
2022-11-27T17:23:43.331Z,3.00
2022-11-27T17:26:11.638Z,1.33
2022-11-27T17:28:39.494Z,2.28
2022-11-27T17:31:13.596Z,2.30
2022-11-27T17:33:42.983Z,3.00
2022-11-27T17:36:10.698Z,2.47
2022-11-27T17:38:38.437Z,2.50
2022-11-27T17:41:10.771Z,2.97
2022-11-27T17:43:40.036Z,3.80
2022-11-27T17:46:08.600Z,5.20
2022-11-27T17:48:36.453Z,2.63
2022-11-27T17:51:04.826Z,2.50
2022-11-27T17:53:32.961Z,2.20
2022-11-27T17:56:10.437Z,2.97
2022-11-27T17:58:38.184Z,2.67
2022-11-27T18:01:06.456Z,2.95
2022-11-27T18:03:34.236Z,2.15
2022-11-27T18:06:06.316Z,2.13
2022-11-27T18:08:34.220Z,2.55
2022-11-27T18:11:08.736Z,3.33
2022-11-27T18:13:36.483Z,2.63
2022-11-27T18:16:07.759Z,2.88
2022-11-27T18:18:35.547Z,2.38
2022-11-27T18:21:08.729Z,2.42
2022-11-27T18:23:54.078Z,2.67
2022-11-27T18:26:45.479Z,1.88
2022-11-27T18:29:16.093Z,2.50
2022-11-27T18:31:43.988Z,2.87
2022-11-27T18:34:11.934Z,2.55
2022-11-27T18:36:39.629Z,2.55
2022-11-27T18:39:07.352Z,2.50
2022-11-27T18:41:35.192Z,2.70
2022-11-27T18:44:03.171Z,2.67
2022-11-27T18:46:31.052Z,1.92
2022-11-27T18:48:59.181Z,2.87
2022-11-27T18:51:27.214Z,2.40
2022-11-27T18:53:56.572Z,3.15
2022-11-27T18:56:25.769Z,2.30
2022-11-27T18:58:54.443Z,1.85
2022-11-27T19:01:23.176Z,2.13
2022-11-27T19:03:51.021Z,2.67
2022-11-27T19:06:19.813Z,1.80
2022-11-27T19:08:47.709Z,2.50
2022-11-27T19:11:20.947Z,2.90
2022-11-27T19:13:48.784Z,2.40
2022-11-27T19:16:17.523Z,2.50
2022-11-27T19:18:45.203Z,2.67
2022-11-27T19:21:13.551Z,2.00
2022-11-27T19:23:43.767Z,3.03
2022-11-27T19:26:12.197Z,2.00
2022-11-27T19:28:39.983Z,3.10
2022-11-27T19:31:08.409Z,2.90
2022-11-27T19:33:36.821Z,2.97
2022-11-27T19:36:05.413Z,3.00
2022-11-27T19:38:33.193Z,2.60
2022-11-27T19:41:00.851Z,2.58
2022-11-27T19:43:28.617Z,2.53
2022-11-27T19:45:56.425Z,2.07
2022-11-27T19:48:24.341Z,2.83
2022-11-27T19:50:52.188Z,2.83
2022-11-27T19:53:19.877Z,2.20
2022-11-27T19:55:53.703Z,3.25
2022-11-27T19:58:21.396Z,3.90
2022-11-27T20:00:49.251Z,3.38
2022-11-27T20:03:16.960Z,2.87
2022-11-27T20:05:44.676Z,3.22
2022-11-27T20:08:12.427Z,3.50
2022-11-27T20:10:40.248Z,3.40
2022-11-27T20:13:08.283Z,3.83
2022-11-27T20:15:37.143Z,3.67
2022-11-27T20:18:06.249Z,3.13
2022-11-27T20:20:34.335Z,2.83
2022-11-27T20:23:02.164Z,3.10
2022-11-27T20:25:29.855Z,2.55
2022-11-27T20:27:58.555Z,3.13
2022-11-27T20:30:26.192Z,3.00
2022-11-27T20:32:54.796Z,2.97
2022-11-27T20:35:22.713Z,3.97
2022-11-27T20:37:50.387Z,3.63
2022-11-27T20:40:20.528Z,3.15
2022-11-27T20:42:48.775Z,2.57
2022-11-27T20:45:20.361Z,3.33
2022-11-27T20:47:48.394Z,3.17
2022-11-27T20:50:16.257Z,3.42
2022-11-27T20:52:43.899Z,4.10
2022-11-27T20:55:11.666Z,3.30
2022-11-27T20:57:39.347Z,3.35
2022-11-27T21:00:07.873Z,2.93
2022-11-27T21:02:36.814Z,2.67
2022-11-27T21:05:04.598Z,3.60
2022-11-27T21:07:35.414Z,3.50
2022-11-27T21:10:04.953Z,3.55
2022-11-27T21:12:32.679Z,3.65
2022-11-27T21:15:00.325Z,2.80
2022-11-27T21:17:28.129Z,3.73
2022-11-27T21:19:55.876Z,3.78
2022-11-27T21:22:23.612Z,4.32
2022-11-27T21:24:52.008Z,3.30
2022-11-27T21:27:19.710Z,3.55
2022-11-27T21:29:47.450Z,3.17
2022-11-27T21:32:17.989Z,3.30
2022-11-27T21:34:45.861Z,2.78
2022-11-27T21:37:13.552Z,3.25
2022-11-27T21:39:41.529Z,2.25
2022-11-27T21:42:09.919Z,3.33
2022-11-27T21:44:41.522Z,4.45
2022-11-27T21:47:12.157Z,3.05
2022-11-27T21:49:40.795Z,2.93
2022-11-27T21:52:08.615Z,2.55
2022-11-27T21:54:36.609Z,2.85
2022-11-27T21:57:04.424Z,3.40
2022-11-27T21:59:32.111Z,3.80
2022-11-27T22:02:00.005Z,2.40
2022-11-27T22:04:27.719Z,3.28
2022-11-27T22:06:55.500Z,3.23
2022-11-27T22:09:23.219Z,3.15
2022-11-27T22:11:50.981Z,3.53
2022-11-27T22:14:18.768Z,2.83
2022-11-27T22:16:47.272Z,3.35
2022-11-27T22:19:15.508Z,3.75
2022-11-27T22:21:43.477Z,3.07
2022-11-27T22:24:16.773Z,3.28
2022-11-27T22:26:46.780Z,3.58
2022-11-27T22:29:14.527Z,3.45
2022-11-27T22:31:42.215Z,2.53
2022-11-27T22:34:09.991Z,2.92
2022-11-27T22:36:37.735Z,2.58
2022-11-27T22:39:06.814Z,2.77
2022-11-27T22:41:36.611Z,2.83
2022-11-27T22:44:11.262Z,3.15
2022-11-27T22:46:39.592Z,2.87
2022-11-27T22:49:07.542Z,3.88
2022-11-27T22:51:36.645Z,3.80
2022-11-27T22:54:04.638Z,2.95
2022-11-27T22:56:36.312Z,3.37
2022-11-27T22:59:32.190Z,3.53
2022-11-27T23:01:51.843Z,2.83
2022-11-27T23:04:19.488Z,3.40
2022-11-27T23:06:48.676Z,3.42
2022-11-27T23:09:17.908Z,2.40
2022-11-27T23:11:45.699Z,2.20
2022-11-27T23:14:13.358Z,2.53
2022-11-27T23:16:41.117Z,3.00
2022-11-27T23:19:08.850Z,2.85
2022-11-27T23:21:38.901Z,2.00
2022-11-27T23:24:07.529Z,2.75
2022-11-27T23:26:35.985Z,2.08
2022-11-27T23:29:03.784Z,2.27
2022-11-27T23:31:35.689Z,1.90
2022-11-27T23:34:10.015Z,3.03
2022-11-27T23:39:30.123Z,2.30
2022-11-27T23:41:57.936Z,2.53
2022-11-27T23:44:26.622Z,2.33
2022-11-27T23:46:54.286Z,2.40
2022-11-27T23:49:21.936Z,2.30
2022-11-27T23:51:49.687Z,2.60
2022-11-27T23:54:17.365Z,3.03
2022-11-27T23:56:45.120Z,2.42
2022-11-27T23:59:12.939Z,2.45
